Time;durP1;ratioP1;P1;durP2;ratioP2;P2;SDS_P1;SDS_P2;PMS_P1;PMS_P2;Temp;Humidity;BMP_temperature;BMP_pressure;BME280_temperature;BME280_humidity;BME280_pressure;Samples;Min_cycle;Max_cycle;Signal;HPM_P1;HPM_P2
2022/02/08 00:00:58;;;;;;;17.77;5.07;;;8.30;87.10;;;;;;5119884;28;20385;-85
2022/02/08 00:03:24;;;;;;;25.23;5.73;;;8.30;87.30;;;;;;5099921;28;20271;-86
2022/02/08 00:06:06;;;;;;;30.90;5.23;;;8.30;87.60;;;;;;5101629;28;20190;-85
2022/02/08 00:08:32;;;;;;;18.08;5.70;;;8.40;87.70;;;;;;5118176;28;20409;-85
2022/02/08 00:10:58;;;;;;;24.20;6.65;;;8.40;87.60;;;;;;5100190;28;20273;-85
2022/02/08 00:13:24;;;;;;;32.53;7.65;;;8.50;87.70;;;;;;5100577;28;20210;-85
2022/02/08 00:15:55;;;;;;;11.20;5.60;;;8.40;87.80;;;;;;5100761;28;20201;-85
2022/02/08 00:18:21;;;;;;;15.60;5.45;;;8.30;88.10;;;;;;5100901;28;20164;-85
2022/02/08 00:20:47;;;;;;;16.93;6.03;;;8.40;88.50;;;;;;5100410;28;20178;-85
2022/02/08 00:23:12;;;;;;;16.10;6.00;;;8.30;88.70;;;;;;5118809;28;20730;-85
2022/02/08 00:25:38;;;;;;;27.33;7.07;;;8.40;88.70;;;;;;5100647;28;20560;-85
2022/02/08 00:28:04;;;;;;;23.93;6.30;;;8.50;88.70;;;;;;5099799;28;20210;-85
2022/02/08 00:30:30;;;;;;;26.67;7.53;;;8.50;89.50;;;;;;5100472;28;20175;-85
2022/02/08 00:32:56;;;;;;;24.27;7.17;;;8.50;88.70;;;;;;5100083;28;20218;-86
2022/02/08 00:35:21;;;;;;;14.67;6.50;;;8.50;88.90;;;;;;5100084;28;20508;-85
2022/02/08 00:37:47;;;;;;;17.60;5.83;;;8.60;88.90;;;;;;5099593;28;20167;-85
2022/02/08 00:40:13;;;;;;;33.13;7.47;;;8.50;89.00;;;;;;5098675;28;20224;-85
2022/02/08 00:42:39;;;;;;;19.77;6.40;;;8.70;89.20;;;;;;5116729;28;20195;-85
2022/02/08 00:45:21;;;;;;;22.60;5.87;;;8.80;88.90;;;;;;5099498;28;20417;-85
2022/02/08 00:48:09;;;;;;;16.52;6.00;;;8.90;88.80;;;;;;5102137;28;20163;-85
2022/02/08 00:50:33;;;;;;;32.65;7.68;;;8.80;88.50;;;;;;5128725;27;20181;-85
2022/02/08 00:52:59;;;;;;;20.97;6.60;;;8.80;88.40;;;;;;5139429;27;20590;-86
2022/02/08 00:55:24;;;;;;;15.20;6.67;;;8.80;88.60;;;;;;5107472;28;20171;-85
2022/02/08 00:57:50;;;;;;;21.23;7.03;;;8.80;88.70;;;;;;5102515;28;20440;-86
2022/02/08 01:00:16;;;;;;;19.63;6.00;;;8.90;88.70;;;;;;5102242;28;20234;-87
2022/02/08 01:02:42;;;;;;;20.08;8.25;;;8.90;88.80;;;;;;5120070;28;20274;-88
2022/02/08 01:05:11;;;;;;;26.95;6.78;;;9.00;88.20;;;;;;5102313;28;20175;-87
2022/02/08 01:07:37;;;;;;;19.35;5.20;;;9.10;88.30;;;;;;5121068;28;20618;-85
2022/02/08 01:10:03;;;;;;;16.80;5.30;;;9.10;87.90;;;;;;5103986;28;20214;-86
2022/02/08 01:12:33;;;;;;;27.63;5.13;;;9.10;87.60;;;;;;5109558;28;20191;-86
2022/02/08 01:14:59;;;;;;;24.83;5.88;;;8.90;87.40;;;;;;5107308;28;20203;-85
2022/02/08 01:17:27;;;;;;;17.30;5.97;;;8.90;87.60;;;;;;5102195;28;20528;-85
2022/02/08 01:20:05;;;;;;;12.18;5.03;;;9.00;87.60;;;;;;5101255;28;20178;-85
2022/02/08 01:22:31;;;;;;;14.90;4.75;;;9.20;87.30;;;;;;5108893;28;20564;-87
2022/02/08 01:24:57;;;;;;;25.10;5.93;;;9.10;87.00;;;;;;5096053;28;20290;-87
2022/02/08 01:27:27;;;;;;;12.17;6.03;;;9.10;86.90;;;;;;5114713;28;20286;-87
2022/02/08 01:29:59;;;;;;;17.48;6.72;;;9.10;87.20;;;;;;5113055;28;20408;-87
2022/02/08 01:35:25;;;;;;;16.80;4.68;;;9.10;87.20;;;;;;5094095;28;20294;-87
2022/02/08 01:45:47;;;;;;;11.55;4.80;;;9.30;87.00;;;;;;5107998;28;20662;-87
2022/02/08 01:48:26;;;;;;;12.43;5.03;;;9.30;87.00;;;;;;5117719;28;20170;-87
2022/02/08 01:50:52;;;;;;;12.88;5.50;;;9.30;87.00;;;;;;5102007;28;20168;-87
2022/02/08 01:53:19;;;;;;;11.50;4.80;;;9.20;87.00;;;;;;5104187;28;20227;-87
2022/02/08 01:55:45;;;;;;;15.50;6.05;;;9.20;87.20;;;;;;5110469;28;20488;-89
2022/02/08 01:58:12;;;;;;;11.80;5.60;;;9.20;87.30;;;;;;5115215;28;20183;-88
2022/02/08 02:00:38;;;;;;;20.38;6.82;;;9.20;87.40;;;;;;5101897;28;20444;-89
2022/02/08 02:03:04;;;;;;;15.63;5.37;;;9.20;87.40;;;;;;5100070;28;20199;-89
2022/02/08 02:05:30;;;;;;;11.10;5.68;;;9.20;87.50;;;;;;5101682;28;20171;-90
2022/02/08 02:07:57;;;;;;;19.13;5.50;;;9.20;87.60;;;;;;5102073;28;20183;-89
2022/02/08 02:10:24;;;;;;;12.93;7.03;;;9.20;87.80;;;;;;5099639;28;20673;-89
2022/02/08 02:12:59;;;;;;;22.50;8.05;;;9.20;87.90;;;;;;5101377;28;20293;-89
2022/02/08 02:15:26;;;;;;;9.68;6.18;;;9.10;88.20;;;;;;5102400;28;20167;-88
2022/02/08 02:17:53;;;;;;;13.45;6.80;;;9.20;88.40;;;;;;5109193;28;20179;-88
2022/02/08 02:20:21;;;;;;;16.52;6.18;;;9.10;88.60;;;;;;5108384;28;20171;-89
2022/02/08 02:22:47;;;;;;;13.10;5.80;;;9.10;88.90;;;;;;5110230;28;20203;-88
2022/02/08 02:25:22;;;;;;;19.20;7.27;;;9.10;89.00;;;;;;5120200;28;20229;-88
2022/02/08 02:27:49;;;;;;;23.95;6.03;;;9.20;89.20;;;;;;5100562;28;20451;-89
2022/02/08 02:30:17;;;;;;;13.02;5.93;;;9.10;89.30;;;;;;5100307;28;20175;-89
2022/02/08 02:32:42;;;;;;;15.43;5.73;;;9.10;89.50;;;;;;5117860;28;20218;-89
2022/02/08 02:35:09;;;;;;;14.97;6.30;;;9.20;89.60;;;;;;5100231;28;20617;-89
2022/02/08 02:37:34;;;;;;;16.52;5.90;;;9.20;89.50;;;;;;5100402;28;20175;-89
2022/02/08 02:40:00;;;;;;;15.60;5.80;;;9.20;89.40;;;;;;5100214;28;20207;-89
2022/02/08 02:42:30;;;;;;;12.00;5.70;;;9.30;89.50;;;;;;5099370;28;20651;-89
2022/02/08 02:44:56;;;;;;;21.98;8.23;;;9.30;89.50;;;;;;5099701;28;20417;-89
2022/02/08 02:47:24;;;;;;;14.30;5.33;;;9.30;89.60;;;;;;5118096;28;20186;-87
2022/02/08 02:49:49;;;;;;;17.13;6.15;;;9.40;89.50;;;;;;5100064;28;20174;-89
2022/02/08 02:52:15;;;;;;;12.03;5.57;;;9.40;89.40;;;;;;5099533;28;20171;-90
2022/02/08 02:54:41;;;;;;;16.30;6.03;;;9.40;89.30;;;;;;5099390;28;20655;-89
2022/02/08 02:57:07;;;;;;;12.30;6.13;;;9.40;89.40;;;;;;5100055;28;20175;-89
2022/02/08 02:59:35;;;;;;;17.33;5.80;;;9.30;89.40;;;;;;5099954;28;20175;-89
2022/02/08 03:02:26;;;;;;;12.80;6.85;;;9.40;89.30;;;;;;5099383;28;20413;-89
2022/02/08 03:18:36;;;;;;;15.02;5.55;;;9.20;89.10;;;;;;5118147;28;20290;-89
2022/02/08 03:21:03;;;;;;;26.70;7.32;;;9.20;89.30;;;;;;5094804;28;20171;-89
2022/02/08 03:23:29;;;;;;;23.48;7.63;;;9.20;89.40;;;;;;5117700;28;20217;-88
2022/02/08 03:25:55;;;;;;;19.92;7.65;;;9.20;89.50;;;;;;5099447;28;20179;-88
2022/02/08 03:28:21;;;;;;;12.80;6.20;;;9.40;89.40;;;;;;5100510;28;20246;-88
2022/02/08 03:30:47;;;;;;;9.70;5.80;;;9.40;89.30;;;;;;5100207;28;20228;-87
2022/02/08 03:33:12;;;;;;;12.83;6.17;;;9.30;89.40;;;;;;5117371;28;20268;-90
2022/02/08 03:35:38;;;;;;;11.20;6.37;;;9.40;89.50;;;;;;5099224;28;20248;-89
2022/02/08 03:38:06;;;;;;;12.07;6.00;;;9.40;89.50;;;;;;5099256;28;20607;-90
2022/02/08 03:45:43;;;;;;;22.70;6.60;;;9.40;89.80;;;;;;5126558;28;20171;-89
2022/02/08 03:48:10;;;;;;;16.55;7.20;;;9.50;89.80;;;;;;5103904;28;20232;-89
2022/02/08 03:50:36;;;;;;;14.43;6.60;;;9.40;89.60;;;;;;5102776;28;20258;-88
2022/02/08 03:53:02;;;;;;;12.82;6.68;;;9.40;89.70;;;;;;5099821;28;20195;-88
2022/02/08 03:55:28;;;;;;;15.20;7.10;;;9.50;89.90;;;;;;5103988;28;20182;-88
2022/02/08 03:57:53;;;;;;;12.10;7.07;;;9.50;89.90;;;;;;5109111;28;20176;-89
2022/02/08 04:00:19;;;;;;;16.53;6.87;;;9.60;89.90;;;;;;5113057;28;20417;-89
2022/02/08 04:02:50;;;;;;;19.03;7.70;;;9.50;89.90;;;;;;5098355;28;20612;-89
2022/02/08 04:05:24;;;;;;;19.15;8.63;;;9.40;89.90;;;;;;5098352;28;20421;-89
2022/02/08 04:07:57;;;;;;;15.13;8.85;;;9.30;90.10;;;;;;5098461;28;20462;-90
2022/02/08 04:10:26;;;;;;;23.95;9.52;;;9.20;90.30;;;;;;5098292;28;20250;-89
2022/02/08 04:41:58;;;;;;;15.10;6.73;;;9.20;92.30;;;;;;5116619;28;20179;-87
2022/02/08 04:47:16;;;;;;;26.00;8.63;;;9.20;92.80;;;;;;5116512;28;20219;-89
2022/02/08 04:49:42;;;;;;;14.27;8.60;;;9.20;93.00;;;;;;5090087;28;20178;-89
2022/02/08 04:52:11;;;;;;;18.53;11.50;;;9.30;93.00;;;;;;5097754;28;20175;-88
2022/02/08 05:00:08;;;;;;;14.10;8.50;;;9.50;92.90;;;;;;5117838;28;20726;-89
2022/02/08 05:26:36;;;;;;;19.20;8.50;;;9.40;92.70;;;;;;5116527;28;20164;-90
2022/02/08 05:27:46;;;;;;;24.10;9.40;;;9.60;92.40;;;;;;5115727;28;20653;-89
2022/02/08 05:35:31;;;;;;;16.20;8.50;;;9.50;92.70;;;;;;5108423;28;20245;-88
2022/02/08 05:43:37;;;;;;;28.10;11.50;;;9.50;93.00;;;;;;5128298;28;20768;-88
2022/02/08 05:46:51;;;;;;;24.67;11.13;;;9.60;93.70;;;;;;5095927;28;20175;-89
2022/02/08 05:48:51;;;;;;;25.83;11.20;;;9.50;93.00;;;;;;5107325;28;20684;-89
2022/02/08 05:51:21;;;;;;;27.40;11.82;;;9.50;93.10;;;;;;5120409;28;20179;-89
2022/02/08 05:53:47;;;;;;;22.52;10.38;;;9.50;93.10;;;;;;5105408;28;20203;-89
2022/02/08 05:56:15;;;;;;;25.87;11.30;;;9.60;93.20;;;;;;5097331;28;20174;-89
2022/02/08 05:58:44;;;;;;;21.05;11.05;;;9.60;93.20;;;;;;5115309;28;20175;-90
2022/02/08 06:01:12;;;;;;;31.15;10.98;;;9.60;93.10;;;;;;5100066;28;20175;-87
2022/02/08 06:03:38;;;;;;;27.45;11.02;;;9.60;93.10;;;;;;5100623;28;20282;-89
2022/02/08 06:06:04;;;;;;;25.67;11.10;;;9.70;93.10;;;;;;5102130;28;20240;-90
2022/02/08 06:08:29;;;;;;;25.90;10.87;;;9.80;92.90;;;;;;5101496;28;20421;-90
2022/02/08 06:11:01;;;;;;;22.27;10.33;;;9.80;92.80;;;;;;5106443;28;20247;-90
2022/02/08 06:13:29;;;;;;;21.17;10.30;;;9.70;92.80;;;;;;5115225;28;20207;-90
2022/02/08 06:16:03;;;;;;;25.48;12.05;;;9.80;92.70;;;;;;5088838;28;20206;-90
2022/02/08 06:18:32;;;;;;;35.20;11.55;;;9.80;92.60;;;;;;5097807;28;20232;-88
2022/02/08 06:20:59;;;;;;;19.48;9.80;;;9.90;92.60;;;;;;5101409;28;21402;-90
2022/02/08 06:23:25;;;;;;;23.13;10.18;;;9.90;92.50;;;;;;5095470;28;20207;-90
2022/02/08 06:25:51;;;;;;;22.10;10.40;;;9.80;92.20;;;;;;5096185;28;20187;-90
2022/02/08 06:28:18;;;;;;;20.57;10.40;;;9.80;92.20;;;;;;5097332;28;20278;-89
2022/02/08 06:30:46;;;;;;;25.73;8.95;;;9.80;92.10;;;;;;5096682;28;20203;-87
2022/02/08 06:33:14;;;;;;;23.08;9.13;;;9.80;92.10;;;;;;5088278;28;20206;-88
2022/02/08 06:35:40;;;;;;;29.17;10.30;;;9.90;92.10;;;;;;5096459;28;20176;-88
2022/02/08 06:38:11;;;;;;;23.35;10.25;;;10.00;92.00;;;;;;5102209;28;20233;-88
2022/02/08 06:40:38;;;;;;;15.60;8.10;;;10.00;91.80;;;;;;5086516;28;20180;-87
2022/02/08 06:43:04;;;;;;;13.93;9.55;;;9.90;91.60;;;;;;5104982;28;20206;-89
2022/02/08 06:45:34;;;;;;;24.23;8.55;;;10.00;91.40;;;;;;5101196;28;20602;-87
2022/02/08 06:48:02;;;;;;;17.60;8.10;;;9.90;91.30;;;;;;5102346;28;20563;-89
2022/02/08 06:50:29;;;;;;;15.70;8.45;;;10.00;91.20;;;;;;5101188;28;20183;-88
2022/02/08 06:52:55;;;;;;;21.00;7.53;;;10.10;91.20;;;;;;5097497;28;20199;-89
2022/02/08 06:55:24;;;;;;;21.47;7.63;;;10.20;91.10;;;;;;5114235;28;20179;-88
2022/02/08 06:57:52;;;;;;;16.65;7.45;;;10.20;90.80;;;;;;5115829;28;20476;-89
2022/02/08 07:00:28;;;;;;;19.23;7.90;;;10.20;90.70;;;;;;5093496;28;20186;-89
2022/02/08 07:02:54;;;;;;;16.17;7.43;;;10.10;90.60;;;;;;5096493;28;20194;-89
2022/02/08 07:05:19;;;;;;;15.63;7.30;;;10.20;90.60;;;;;;5096752;28;20554;-89
2022/02/08 07:07:45;;;;;;;23.23;7.40;;;10.30;90.50;;;;;;5096311;28;20167;-92
2022/02/08 07:10:11;;;;;;;16.17;6.57;;;10.40;90.30;;;;;;5096509;28;20176;-89
2022/02/08 07:12:37;;;;;;;15.60;7.90;;;10.50;90.20;;;;;;5098814;28;20682;-89
2022/02/08 07:15:10;;;;;;;24.33;8.37;;;10.50;90.10;;;;;;5120587;28;20987;-89
2022/02/08 07:17:36;;;;;;;13.50;6.57;;;10.40;89.80;;;;;;5092720;28;20426;-89
2022/02/08 07:20:03;;;;;;;17.30;7.60;;;10.40;89.80;;;;;;5103757;28;20186;-89
2022/02/08 07:22:29;;;;;;;17.75;7.75;;;10.30;89.90;;;;;;5104005;28;20694;-87
2022/02/08 07:24:55;;;;;;;17.38;9.52;;;10.20;90.00;;;;;;5124947;28;20266;-87
2022/02/08 07:27:22;;;;;;;15.68;7.80;;;10.20;90.00;;;;;;5115290;28;20178;-88
2022/02/08 07:29:51;;;;;;;18.42;6.80;;;10.20;89.90;;;;;;5131705;28;20195;-88
2022/02/08 07:32:19;;;;;;;14.80;8.15;;;10.30;90.00;;;;;;5097642;28;20177;-87
2022/02/08 07:34:51;;;;;;;13.35;6.50;;;10.40;90.00;;;;;;5097119;28;20207;-87
2022/02/08 07:37:32;;;;;;;14.57;7.25;;;10.30;90.00;;;;;;5098144;28;20522;-88
2022/02/08 07:40:02;;;;;;;20.73;6.07;;;10.40;89.90;;;;;;5101187;28;20179;-87
2022/02/08 07:42:28;;;;;;;14.93;6.40;;;10.40;89.80;;;;;;5097661;28;20643;-88
2022/02/08 07:44:54;;;;;;;18.97;6.07;;;10.30;89.80;;;;;;5098284;28;20194;-87
2022/02/08 07:47:19;;;;;;;14.67;6.97;;;10.30;89.80;;;;;;5099766;28;20557;-87
2022/02/08 07:49:45;;;;;;;14.33;5.80;;;10.50;89.90;;;;;;5099186;28;20183;-86
2022/02/08 07:52:11;;;;;;;16.77;5.60;;;10.40;89.70;;;;;;5106796;28;20247;-87
2022/02/08 07:54:39;;;;;;;11.38;5.97;;;10.30;89.80;;;;;;5105672;28;20233;-86
2022/02/08 07:57:06;;;;;;;9.23;4.97;;;10.30;89.90;;;;;;5099052;28;20670;-87
2022/02/08 07:59:31;;;;;;;15.02;5.30;;;10.40;89.90;;;;;;5099252;28;20214;-87
2022/02/08 08:01:57;;;;;;;15.40;5.77;;;10.50;89.90;;;;;;5098962;28;20186;-87
2022/02/08 08:04:23;;;;;;;18.83;5.28;;;10.40;89.50;;;;;;5099387;28;20195;-87
2022/02/08 08:06:49;;;;;;;17.23;4.50;;;10.40;89.60;;;;;;5099516;28;20182;-87
2022/02/08 08:09:17;;;;;;;13.30;5.00;;;10.40;89.60;;;;;;5101089;28;20202;-89
2022/02/08 08:11:44;;;;;;;14.18;4.25;;;10.50;89.50;;;;;;5121125;28;20175;-87
2022/02/08 08:14:12;;;;;;;6.70;3.90;;;10.60;89.30;;;;;;5105811;28;20222;-87
2022/02/08 08:19:37;;;;;;;7.13;3.80;;;10.40;89.00;;;;;;5089251;28;20248;-87
2022/02/08 08:22:07;;;;;;;12.45;4.03;;;10.50;89.00;;;;;;5098891;28;20171;-87
2022/02/08 08:24:34;;;;;;;9.20;3.28;;;10.40;88.90;;;;;;5103089;28;20568;-87
2022/02/08 08:27:00;;;;;;;8.40;3.47;;;10.40;88.90;;;;;;5108391;28;20528;-86
2022/02/08 08:29:26;;;;;;;15.82;2.95;;;10.50;88.90;;;;;;5117616;28;20247;-87
2022/02/08 08:31:51;;;;;;;11.33;2.67;;;10.50;88.80;;;;;;5099085;28;20222;-87
2022/02/08 08:34:17;;;;;;;9.80;3.40;;;10.50;88.70;;;;;;5115086;28;20508;-88
2022/02/08 08:36:43;;;;;;;10.13;3.63;;;10.70;88.70;;;;;;5115562;28;20409;-87
2022/02/08 08:39:10;;;;;;;7.60;3.10;;;10.70;88.30;;;;;;5098266;28;20270;-87
2022/02/08 08:41:52;;;;;;;13.02;3.35;;;10.80;88.00;;;;;;5097788;28;20186;-87
2022/02/08 08:52:37;;;;;;;5.75;2.70;;;10.70;86.50;;;;;;5114920;28;20217;-87
2022/02/08 08:55:04;;;;;;;5.47;3.20;;;10.80;86.40;;;;;;5096653;28;20202;-87
2022/02/08 08:57:30;;;;;;;7.00;2.20;;;10.80;86.30;;;;;;5098047;28;20167;-88
2022/02/08 08:59:56;;;;;;;12.40;2.83;;;10.90;86.20;;;;;;5097406;28;20179;-87
2022/02/08 09:02:22;;;;;;;5.70;2.67;;;11.00;85.80;;;;;;5098641;28;20173;-88
2022/02/08 09:04:50;;;;;;;13.60;2.50;;;10.90;85.50;;;;;;5096957;28;20175;-87
2022/02/08 09:07:16;;;;;;;5.65;2.55;;;10.90;85.30;;;;;;5097085;28;20432;-88
2022/02/08 09:09:45;;;;;;;6.90;2.57;;;11.00;85.10;;;;;;5098978;28;20266;-88
2022/02/08 09:12:24;;;;;;;2.42;2.22;;;11.10;85.10;;;;;;5101400;28;20437;-88
2022/02/08 09:18:14;;;;;;;13.30;2.85;;;11.20;84.60;;;;;;5116276;28;20151;-87
2022/02/08 09:28:56;;;;;;;5.97;2.40;;;11.30;83.40;;;;;;5115982;28;20218;-88
2022/02/08 09:31:21;;;;;;;9.43;3.40;;;11.20;83.10;;;;;;5100665;28;20166;-88
2022/02/08 09:33:49;;;;;;;7.27;3.03;;;11.20;82.90;;;;;;5100756;28;20206;-89
2022/02/08 09:36:16;;;;;;;5.50;2.28;;;11.30;82.80;;;;;;5099060;28;20519;-88
2022/02/08 09:38:42;;;;;;;5.55;2.45;;;11.40;82.70;;;;;;5102070;28;20562;-88
2022/02/08 09:41:10;;;;;;;8.53;2.20;;;11.40;82.30;;;;;;5104304;28;20171;-89
2022/02/08 09:43:38;;;;;;;8.57;2.63;;;11.30;82.10;;;;;;5101744;28;20277;-87
2022/02/08 09:46:06;;;;;;;6.40;2.67;;;11.40;81.90;;;;;;5100421;28;20179;-88
2022/02/08 09:48:45;;;;;;;4.55;2.05;;;11.40;81.80;;;;;;5100007;28;20175;-88
2022/02/08 09:51:12;;;;;;;7.43;2.75;;;11.40;81.70;;;;;;5097410;28;20186;-88
2022/02/08 09:53:42;;;;;;;9.55;2.80;;;11.50;81.50;;;;;;5097034;28;20271;-87
2022/02/08 09:56:11;;;;;;;3.60;2.33;;;11.50;81.10;;;;;;5115139;28;20178;-88
2022/02/08 09:58:37;;;;;;;3.55;2.22;;;11.50;80.80;;;;;;5097243;28;20176;-87
2022/02/08 10:01:07;;;;;;;10.57;3.63;;;11.40;80.40;;;;;;5098136;28;20186;-87
2022/02/08 10:03:33;;;;;;;3.15;2.10;;;11.40;80.30;;;;;;5097258;28;20280;-87
2022/02/08 10:05:59;;;;;;;8.40;2.42;;;11.50;80.50;;;;;;5100677;28;20274;-87
2022/02/08 10:08:25;;;;;;;8.60;3.27;;;11.50;80.30;;;;;;5101796;28;20209;-88
2022/02/08 10:10:51;;;;;;;3.67;2.47;;;11.60;80.10;;;;;;5104441;28;20270;-87
2022/02/08 10:13:38;;;;;;;10.43;2.83;;;11.70;79.90;;;;;;5096406;28;20249;-87
2022/02/08 10:23:57;;;;;;;6.97;3.05;;;11.80;78.80;;;;;;5144296;28;20202;-88
2022/02/08 10:29:39;;;;;;;12.93;2.28;;;12.00;78.60;;;;;;5135540;28;20196;-88
2022/02/08 10:37:49;;;;;;;9.82;2.40;;;12.10;77.50;;;;;;5130754;28;20178;-89
2022/02/08 10:40:18;;;;;;;4.10;1.95;;;12.20;77.50;;;;;;5135104;28;20532;-88
2022/02/08 10:42:59;;;;;;;8.73;2.38;;;12.30;77.10;;;;;;5116595;28;20195;-88
2022/02/08 10:45:29;;;;;;;10.30;2.85;;;12.30;76.80;;;;;;5116661;27;20192;-87
2022/02/08 10:47:56;;;;;;;15.07;2.80;;;12.30;76.60;;;;;;5138197;27;20574;-87
2022/02/08 10:50:23;;;;;;;6.20;2.17;;;12.30;76.20;;;;;;5120913;27;20178;-87
2022/02/08 10:52:49;;;;;;;8.07;2.40;;;12.50;76.00;;;;;;5122070;27;20220;-87
2022/02/08 10:55:32;;;;;;;8.30;2.38;;;12.50;75.60;;;;;;5121943;27;20292;-87
2022/02/08 11:00:58;;;;;;;5.88;2.55;;;12.20;75.20;;;;;;5138919;27;20657;-87
2022/02/08 11:03:38;;;;;;;9.10;2.28;;;12.30;76.20;;;;;;5121072;27;20201;-88
2022/02/08 11:09:13;;;;;;;9.63;3.63;;;12.50;74.90;;;;;;5141752;27;20154;-87
2022/02/08 11:11:58;;;;;;;5.18;2.15;;;12.60;74.00;;;;;;5131804;27;20202;-88
2022/02/08 11:14:32;;;;;;;9.05;1.98;;;12.50;73.70;;;;;;5124989;27;20213;-88
2022/02/08 11:22:48;;;;;;;16.77;2.60;;;12.70;73.50;;;;;;5137348;27;20170;-89
2022/02/08 11:25:24;;;;;;;5.15;2.47;;;12.70;73.10;;;;;;5120243;27;20177;-87
2022/02/08 11:27:56;;;;;;;3.40;2.15;;;12.70;72.70;;;;;;5120194;27;20209;-89
2022/02/08 11:30:40;;;;;;;3.55;2.08;;;12.90;72.30;;;;;;5120647;27;20174;-87
2022/02/08 11:50:02;;;;;;;6.03;2.70;;;13.00;70.60;;;;;;5138182;27;20170;-87
2022/02/08 12:07:55;;;;;;;4.47;1.63;;;13.40;68.20;;;;;;5117734;28;20182;-87
2022/02/08 12:10:32;;;;;;;6.35;2.45;;;13.30;68.30;;;;;;5098337;28;20320;-87
2022/02/08 12:48:40;;;;;;;13.20;2.40;;;13.70;68.70;;;;;;5119236;28;20240;-88
2022/02/08 12:59:13;;;;;;;4.07;2.15;;;13.60;69.20;;;;;;5116233;28;20167;-86
2022/02/08 14:16:20;;;;;;;5.63;2.63;;;12.90;71.30;;;;;;5138259;28;20158;-86
2022/02/08 14:32:00;;;;;;;3.90;2.03;;;13.30;69.80;;;;;;5118246;28;20190;-87
2022/02/08 14:37:21;;;;;;;5.93;1.80;;;13.30;69.30;;;;;;5119063;28;20217;-87
2022/02/08 15:07:29;;;;;;;2.55;1.75;;;13.10;69.90;;;;;;5111592;28;20197;-87
2022/02/08 15:09:34;;;;;;;1.80;1.55;;;13.00;70.10;;;;;;5117576;28;20218;-86
2022/02/08 15:12:12;;;;;;;7.57;2.03;;;13.10;70.70;;;;;;5099479;28;20655;-86
2022/02/08 15:14:55;;;;;;;2.05;1.63;;;13.10;70.60;;;;;;5109273;28;20195;-86
2022/02/08 15:17:21;;;;;;;6.15;2.17;;;13.10;70.70;;;;;;5100573;28;20167;-87
2022/02/08 15:19:49;;;;;;;4.40;2.07;;;13.30;70.80;;;;;;5100209;28;20175;-86
2022/02/08 15:22:17;;;;;;;3.83;2.25;;;13.20;71.60;;;;;;5100439;28;20425;-86
2022/02/08 15:24:43;;;;;;;2.90;2.08;;;13.20;71.40;;;;;;5099998;28;20191;-87
2022/02/08 15:27:11;;;;;;;3.20;1.60;;;13.20;71.60;;;;;;5116430;28;20185;-87
2022/02/08 15:29:37;;;;;;;3.28;1.70;;;13.00;71.80;;;;;;5098142;28;20520;-87
2022/02/08 15:32:05;;;;;;;8.50;3.80;;;12.90;72.50;;;;;;5099778;28;20659;-87
2022/02/08 15:34:31;;;;;;;2.95;1.90;;;13.20;72.30;;;;;;5119496;28;20559;-87
2022/02/08 15:36:57;;;;;;;3.20;1.87;;;13.30;71.90;;;;;;5101646;28;20209;-86
2022/02/08 15:39:23;;;;;;;4.78;1.75;;;13.10;72.30;;;;;;5094418;28;20273;-86
2022/02/08 15:41:49;;;;;;;3.23;1.77;;;13.00;72.80;;;;;;5100793;28;20179;-86
2022/02/08 15:44:20;;;;;;;1.60;1.50;;;13.20;72.60;;;;;;5103116;28;20448;-86
2022/02/08 15:46:46;;;;;;;2.65;1.65;;;13.00;72.90;;;;;;5119004;28;20173;-86
2022/02/08 15:49:13;;;;;;;7.85;2.03;;;13.00;73.30;;;;;;5101414;28;20557;-86
2022/02/08 15:51:47;;;;;;;2.97;1.40;;;13.00;73.20;;;;;;5103281;28;20539;-87
2022/02/08 15:54:25;;;;;;;3.85;1.80;;;13.00;73.20;;;;;;5097408;28;20297;-87
2022/02/08 16:08:03;;;;;;;6.47;1.85;;;12.60;74.10;;;;;;5118769;28;20787;-87
2022/02/08 16:10:07;;;;;;;8.65;2.17;;;12.60;74.40;;;;;;5105991;28;20179;-86
2022/02/08 17:00:23;;;;;;;5.13;2.75;;;12.50;73.80;;;;;;5115539;28;20174;-88
2022/02/08 17:02:55;;;;;;;4.95;2.47;;;12.40;74.10;;;;;;5098178;28;20191;-88
2022/02/08 17:05:21;;;;;;;4.65;1.92;;;12.50;74.20;;;;;;5098460;28;20175;-87
2022/02/08 17:07:47;;;;;;;3.47;2.10;;;12.30;74.30;;;;;;5097883;28;20790;-87
2022/02/08 17:10:31;;;;;;;7.07;2.70;;;12.30;74.80;;;;;;5099086;28;20171;-87
2022/02/08 17:13:08;;;;;;;6.20;2.28;;;12.20;74.70;;;;;;5098730;28;20246;-86
2022/02/08 17:47:43;;;;;;;4.22;3.05;;;12.20;73.80;;;;;;5115468;28;20243;-87
2022/02/08 17:50:15;;;;;;;3.72;2.33;;;12.20;74.10;;;;;;5097897;28;20171;-87
2022/02/08 17:52:42;;;;;;;7.72;2.75;;;12.20;74.30;;;;;;5097285;28;20194;-87
2022/02/08 17:55:29;;;;;;;7.55;3.47;;;12.20;74.40;;;;;;5096759;28;20256;-88
2022/02/08 17:57:55;;;;;;;3.22;2.50;;;12.30;74.40;;;;;;5096697;28;20175;-89
2022/02/08 18:00:21;;;;;;;6.72;2.65;;;12.10;74.50;;;;;;5112961;28;20179;-88
2022/02/08 18:02:47;;;;;;;4.43;2.22;;;12.10;74.50;;;;;;5111882;28;20207;-88
2022/02/08 18:05:15;;;;;;;5.72;2.53;;;12.00;74.70;;;;;;5098240;28;20599;-88
2022/02/08 18:07:42;;;;;;;3.03;2.17;;;12.10;74.80;;;;;;5098086;28;20171;-89
2022/02/08 18:10:10;;;;;;;3.65;1.73;;;12.10;74.90;;;;;;5080884;28;20406;-89
2022/02/08 18:12:40;;;;;;;2.78;2.30;;;12.10;74.90;;;;;;5088657;28;21041;-88
2022/02/08 18:15:10;;;;;;;2.40;2.08;;;12.10;74.90;;;;;;5092605;28;20217;-88
2022/02/08 18:17:42;;;;;;;7.47;2.53;;;12.20;74.50;;;;;;5105893;28;20226;-87
2022/02/08 19:19:57;;;;;;;6.22;1.90;;;11.80;75.90;;;;;;5118288;28;20185;-86
2022/02/08 19:22:23;;;;;;;3.22;2.03;;;11.70;76.10;;;;;;5122516;28;20217;-84
2022/02/08 19:24:49;;;;;;;4.10;2.53;;;11.80;76.00;;;;;;5122866;28;20179;-85
2022/02/08 19:27:17;;;;;;;2.60;2.30;;;11.70;76.00;;;;;;5123987;28;20167;-85
2022/02/08 19:29:44;;;;;;;3.58;2.17;;;11.70;76.20;;;;;;5106632;28;20325;-85
2022/02/08 19:32:09;;;;;;;3.83;2.22;;;11.70;76.30;;;;;;5106857;28;20202;-86
2022/02/08 19:34:37;;;;;;;1.93;1.83;;;11.90;75.90;;;;;;5094802;28;20216;-86
2022/02/08 19:37:07;;;;;;;2.97;2.03;;;11.80;75.70;;;;;;5096863;28;20496;-87
2022/02/08 19:39:36;;;;;;;4.07;2.20;;;11.80;75.60;;;;;;5100757;28;20171;-87
2022/02/08 19:42:03;;;;;;;3.47;2.40;;;12.00;75.50;;;;;;5100685;28;20851;-87
2022/02/08 19:44:28;;;;;;;3.80;1.90;;;12.00;75.40;;;;;;5090730;28;20210;-88
2022/02/08 19:46:57;;;;;;;1.77;1.67;;;11.80;76.00;;;;;;5086884;28;20574;-88
2022/02/08 19:49:23;;;;;;;3.90;3.67;;;11.70;76.80;;;;;;5098273;28;20206;-87
2022/02/08 19:51:50;;;;;;;6.18;2.10;;;11.50;77.80;;;;;;5118859;28;20233;-87
2022/02/08 19:54:23;;;;;;;5.10;2.08;;;11.50;78.60;;;;;;5092400;28;20670;-86
2022/02/08 19:57:31;;;;;;;6.07;2.42;;;11.50;78.80;;;;;;5119491;28;20167;-86
2022/02/08 19:59:40;;;;;;;3.38;2.78;;;11.50;78.90;;;;;;5106979;28;20543;-85
2022/02/08 20:02:11;;;;;;;4.25;2.20;;;11.40;79.40;;;;;;5100361;28;20171;-87
2022/02/08 20:04:37;;;;;;;5.47;2.92;;;11.40;79.80;;;;;;5098813;28;20199;-87
2022/02/08 20:07:04;;;;;;;3.83;2.33;;;11.40;80.10;;;;;;5098600;28;20205;-87
2022/02/08 20:09:30;;;;;;;4.00;2.80;;;11.40;80.30;;;;;;5099189;28;20242;-89
2022/02/08 20:11:56;;;;;;;3.30;2.80;;;11.30;80.70;;;;;;5117866;28;20221;-90
2022/02/08 20:14:23;;;;;;;3.67;2.85;;;11.30;81.30;;;;;;5104515;28;20199;-89
2022/02/08 20:16:49;;;;;;;10.70;3.55;;;11.10;81.90;;;;;;5097473;28;20185;-88
2022/02/08 20:19:17;;;;;;;3.55;3.10;;;11.10;82.30;;;;;;5097684;28;20262;-89
2022/02/08 20:21:44;;;;;;;3.20;2.90;;;11.20;82.50;;;;;;5097201;28;20277;-89
2022/02/08 20:24:13;;;;;;;2.60;2.40;;;11.10;82.30;;;;;;5097549;28;20679;-88
2022/02/08 20:27:03;;;;;;;4.35;2.45;;;11.10;81.70;;;;;;5101727;28;20236;-89
2022/02/08 20:29:32;;;;;;;3.97;2.67;;;11.10;81.20;;;;;;5098543;28;20186;-89
2022/02/08 20:31:58;;;;;;;4.88;2.47;;;11.00;80.80;;;;;;5097321;28;20190;-88
2022/02/08 20:34:27;;;;;;;8.07;2.67;;;11.10;80.80;;;;;;5097515;28;20547;-88
2022/02/08 20:36:58;;;;;;;4.30;2.90;;;11.30;80.80;;;;;;5096882;28;20910;-87
2022/02/08 20:39:24;;;;;;;3.80;2.70;;;11.20;80.50;;;;;;5097958;28;20171;-87
2022/02/08 20:41:51;;;;;;;3.30;2.97;;;11.40;80.40;;;;;;5096590;28;20193;-88
2022/02/08 20:44:18;;;;;;;8.18;2.78;;;11.40;80.00;;;;;;5116010;28;20202;-88
2022/02/08 20:46:51;;;;;;;4.70;3.40;;;11.30;80.00;;;;;;5097924;28;20176;-87
2022/02/08 20:49:17;;;;;;;3.10;2.85;;;11.40;80.10;;;;;;5115471;28;20194;-86
2022/02/08 20:51:45;;;;;;;8.77;2.50;;;11.30;80.10;;;;;;5097430;28;20532;-87
2022/02/08 20:54:39;;;;;;;4.45;2.20;;;11.40;79.90;;;;;;5115575;28;20690;-88
2022/02/08 20:57:12;;;;;;;3.20;2.55;;;11.30;79.70;;;;;;5108593;28;20151;-88
2022/02/08 20:59:38;;;;;;;4.10;3.00;;;11.40;79.80;;;;;;5115368;28;20262;-88
2022/02/08 21:02:04;;;;;;;6.28;2.85;;;11.50;79.70;;;;;;5114575;28;20190;-88
2022/02/08 21:04:42;;;;;;;2.58;2.38;;;11.40;79.30;;;;;;5114134;28;20213;-88
2022/02/08 21:07:07;;;;;;;4.53;2.50;;;11.40;79.30;;;;;;5100730;28;20189;-88
2022/02/08 21:09:33;;;;;;;2.00;1.80;;;11.50;79.30;;;;;;5106099;28;20631;-87